createdAt,value
2018-03-17T00:00:40.247Z,96692.83
2018-03-17T00:01:45.481Z,96689.31
2018-03-17T00:02:50.618Z,96691.11
2018-03-17T00:03:55.852Z,96690.33
2018-03-17T00:05:01.025Z,96688.02
2018-03-17T00:06:06.509Z,96696.27
2018-03-17T00:07:11.773Z,96696.21
2018-03-17T00:08:16.959Z,96692.56
2018-03-17T00:09:22.295Z,96701.61
2018-03-17T00:10:27.404Z,96696.07
2018-03-17T00:11:32.683Z,96695.41
2018-03-17T00:12:38.207Z,96690.25
2018-03-17T00:13:43.532Z,96700.05
2018-03-17T00:14:48.776Z,96709.40
2018-03-17T00:15:53.778Z,96702.84
2018-03-17T00:16:58.883Z,96706.66
2018-03-17T00:18:04.067Z,96703.17
2018-03-17T00:19:09.204Z,96699.05
2018-03-17T00:20:14.482Z,96693.09
2018-03-17T00:21:19.581Z,96681.71
2018-03-17T00:22:24.632Z,96691.34
2018-03-17T00:23:29.833Z,96688.16
2018-03-17T00:24:35.323Z,96692.77
2018-03-17T00:25:40.404Z,96685.04
2018-03-17T00:26:45.731Z,96681.06
2018-03-17T00:27:50.833Z,96683.22
2018-03-17T00:28:56.317Z,96682.49
2018-03-17T00:30:01.718Z,96676.37
2018-03-17T00:31:07.349Z,96679.67
2018-03-17T00:32:12.630Z,96683.13
2018-03-17T00:33:17.902Z,96678.30
2018-03-17T00:34:23.298Z,96674.05
2018-03-17T00:35:28.623Z,96679.02
2018-03-17T00:36:34.048Z,96683.99
2018-03-17T00:37:39.636Z,96680.20
2018-03-17T00:38:45.058Z,96684.73
2018-03-17T00:39:50.408Z,96684.54
2018-03-17T00:40:55.678Z,96689.89
2018-03-17T00:42:00.872Z,96680.52
2018-03-17T00:43:06.280Z,96678.13
2018-03-17T00:44:12.055Z,96685.48
2018-03-17T00:45:17.587Z,96683.41
2018-03-17T00:46:23.004Z,96689.61
2018-03-17T00:47:28.532Z,96699.53
2018-03-17T00:48:33.882Z,96700.87
2018-03-17T00:49:39.227Z,96700.67
2018-03-17T00:50:44.743Z,96706.08
2018-03-17T00:51:50.175Z,96705.98
2018-03-17T00:52:55.766Z,96703.21
2018-03-17T00:54:01.074Z,96711.97
2018-03-17T00:55:06.734Z,96703.94
2018-03-17T00:56:12.064Z,96700.39
2018-03-17T00:57:17.772Z,96708.73
2018-03-17T00:58:23.212Z,96704.34
2018-03-17T00:59:28.821Z,96710.44
2018-03-17T01:00:34.154Z,96701.78
2018-03-17T01:01:39.730Z,96692.83
2018-03-17T01:02:45.289Z,96697.02
2018-03-17T01:03:51.107Z,96710.13
2018-03-17T01:04:56.462Z,96709.28
2018-03-17T01:06:01.990Z,96709.63
2018-03-17T01:07:07.430Z,96708.00
2018-03-17T01:08:13.008Z,96709.80
2018-03-17T01:09:18.511Z,96714.50
2018-03-17T01:10:24.141Z,96713.22
2018-03-17T01:11:29.512Z,96718.13
2018-03-17T01:12:34.871Z,96717.70
2018-03-17T01:13:40.252Z,96716.80
2018-03-17T01:14:45.795Z,96721.06
2018-03-17T01:15:51.237Z,96717.77
2018-03-17T01:16:57.118Z,96715.56
2018-03-17T01:18:02.577Z,96705.11
2018-03-17T01:19:08.205Z,96708.92
2018-03-17T01:20:13.797Z,96723.79
2018-03-17T01:21:19.271Z,96726.75
2018-03-17T01:22:24.678Z,96723.89
2018-03-17T01:23:30.112Z,96726.14
2018-03-17T01:24:35.329Z,96718.88
2018-03-17T01:25:40.724Z,96714.78
2018-03-17T01:26:46.265Z,96726.14
2018-03-17T01:27:51.658Z,96717.56
2018-03-17T01:28:57.028Z,96722.11
2018-03-17T01:30:02.802Z,96715.97
2018-03-17T01:31:08.480Z,96704.77
2018-03-17T01:32:13.944Z,96710.69
2018-03-17T01:33:19.308Z,96708.89
2018-03-17T01:34:24.746Z,96711.93
2018-03-17T01:35:30.190Z,96708.58
2018-03-17T01:36:36.117Z,96700.13
2018-03-17T01:37:41.754Z,96706.14
2018-03-17T01:38:47.486Z,96705.00
2018-03-17T01:39:52.972Z,96693.98
2018-03-17T01:40:58.594Z,96699.74
2018-03-17T01:42:04.446Z,96705.45
2018-03-17T01:43:10.802Z,96700.46
2018-03-17T01:44:16.454Z,96699.59
2018-03-17T01:45:22.057Z,96692.26
2018-03-17T01:46:27.495Z,96699.97
2018-03-17T01:47:33.080Z,96703.06
2018-03-17T01:48:38.484Z,96702.86
2018-03-17T01:49:44.116Z,96694.58
2018-03-17T01:50:49.650Z,96700.17
2018-03-17T01:51:55.229Z,96689.86
2018-03-17T01:53:00.918Z,96694.93
2018-03-17T01:54:10.704Z,96682.88
2018-03-17T01:55:16.511Z,96690.78
2018-03-17T01:56:22.240Z,96689.83
2018-03-17T01:57:28.073Z,96694.31
2018-03-17T01:58:34.100Z,96694.16
2018-03-17T01:59:40.038Z,96692.80
2018-03-17T02:00:45.972Z,96691.48
2018-03-17T02:01:51.756Z,96697.31
2018-03-17T02:02:57.337Z,96699.70
2018-03-17T02:04:03.218Z,96699.66
2018-03-17T02:05:09.119Z,96706.90
2018-03-17T02:06:14.970Z,96703.83
2018-03-17T02:07:20.718Z,96700.70
2018-03-17T02:08:26.369Z,96700.17
2018-03-17T02:09:32.296Z,96692.20
2018-03-17T02:10:38.040Z,96684.23
2018-03-17T02:11:43.850Z,96682.27
2018-03-17T02:12:49.783Z,96692.20
2018-03-17T02:13:55.683Z,96678.52
2018-03-17T02:15:01.480Z,96674.47
2018-03-17T02:16:07.354Z,96678.19
2018-03-17T02:17:12.976Z,96670.44
2018-03-17T02:18:18.959Z,96683.69
2018-03-17T02:19:24.524Z,96694.00
2018-03-17T02:20:30.871Z,96682.88
2018-03-17T02:21:36.606Z,96683.78
2018-03-17T02:22:42.253Z,96669.80
2018-03-17T02:23:47.969Z,96679.91
2018-03-17T02:24:53.554Z,96680.60
2018-03-17T02:25:59.406Z,96668.70
2018-03-17T02:27:05.347Z,96657.26
2018-03-17T02:28:10.896Z,96667.14
2018-03-17T02:29:16.535Z,96661.06
2018-03-17T02:30:22.117Z,96664.28
2018-03-17T02:31:27.732Z,96670.01
2018-03-17T02:32:33.436Z,96666.84
2018-03-17T02:33:39.526Z,96674.66
2018-03-17T02:34:44.950Z,96670.17
2018-03-17T02:35:50.802Z,96666.89
2018-03-17T02:36:56.403Z,96668.38
2018-03-17T02:38:02.162Z,96669.56
2018-03-17T02:39:08.053Z,96661.73
2018-03-17T02:40:14.221Z,96663.35
2018-03-17T02:41:19.993Z,96662.62
2018-03-17T02:42:25.673Z,96660.62
2018-03-17T02:43:31.336Z,96662.02
2018-03-17T02:44:37.046Z,96664.06
2018-03-17T02:45:43.125Z,96663.05
2018-03-17T02:46:49.097Z,96660.08
2018-03-17T02:47:54.812Z,96664.70
2018-03-17T02:49:00.484Z,96658.16
2018-03-17T02:50:06.229Z,96655.39
2018-03-17T02:51:11.872Z,96659.27
2018-03-17T02:52:17.236Z,96656.69
2018-03-17T02:53:23.234Z,96654.69
2018-03-17T02:54:28.937Z,96666.94
2018-03-17T02:55:34.732Z,96672.28
2018-03-17T02:56:39.912Z,96670.32
2018-03-17T02:57:45.565Z,96663.45
2018-03-17T02:58:51.429Z,96667.19
2018-03-17T02:59:57.206Z,96670.84
2018-03-17T03:01:02.712Z,96658.07
2018-03-17T03:02:08.458Z,96667.45
2018-03-17T03:03:14.016Z,96671.59
2018-03-17T03:04:19.816Z,96669.69
2018-03-17T03:05:25.362Z,96667.39
2018-03-17T03:06:31.145Z,96662.26
2018-03-17T03:07:36.766Z,96657.24
2018-03-17T03:08:42.443Z,96657.33
2018-03-17T03:09:48.502Z,96655.98
2018-03-17T03:10:54.037Z,96660.52
2018-03-17T03:11:59.384Z,96666.73
2018-03-17T03:13:05.485Z,96659.44
2018-03-17T03:14:10.937Z,96664.61
2018-03-17T03:15:16.515Z,96673.68
2018-03-17T03:16:21.921Z,96672.92
2018-03-17T03:17:27.120Z,96670.14
2018-03-17T03:18:32.320Z,96672.65
2018-03-17T03:19:38.075Z,96682.93
2018-03-17T03:20:43.483Z,96678.58
2018-03-17T03:21:48.844Z,96681.00
2018-03-17T03:22:54.395Z,96677.88
2018-03-17T03:24:00.008Z,96683.75
2018-03-17T03:25:05.802Z,96689.58
2018-03-17T03:26:11.288Z,96672.52
2018-03-17T03:27:16.736Z,96680.94
2018-03-17T03:28:22.190Z,96684.00
2018-03-17T03:29:27.708Z,96680.77
2018-03-17T03:30:32.991Z,96680.09
2018-03-17T03:31:38.570Z,96679.23
2018-03-17T03:32:44.414Z,96682.27
2018-03-17T03:33:50.185Z,96680.66
2018-03-17T03:34:55.893Z,96687.69
2018-03-17T03:36:01.380Z,96672.11
2018-03-17T03:37:06.646Z,96671.75
2018-03-17T03:38:11.850Z,96680.43
2018-03-17T03:39:17.214Z,96683.48
2018-03-17T03:40:22.885Z,96687.05
2018-03-17T03:41:27.935Z,96675.98
2018-03-17T03:42:33.449Z,96683.76
2018-03-17T03:43:38.395Z,96672.16
2018-03-17T03:44:44.150Z,96674.42
2018-03-17T03:45:49.750Z,96657.16
2018-03-17T03:46:55.366Z,96667.29
2018-03-17T03:48:01.158Z,96660.80
2018-03-17T03:49:06.302Z,96659.45
2018-03-17T03:50:11.764Z,96655.52
2018-03-17T03:51:18.025Z,96653.36
2018-03-17T03:52:23.513Z,96659.53
2018-03-17T03:53:28.821Z,96657.20
2018-03-17T03:54:34.203Z,96648.55
2018-03-17T03:55:39.787Z,96657.50
2018-03-17T03:56:45.050Z,96654.67
2018-03-17T03:57:50.711Z,96657.12
2018-03-17T03:58:56.304Z,96657.59
2018-03-17T04:00:01.385Z,96661.70
2018-03-17T04:01:06.892Z,96666.89
2018-03-17T04:02:12.260Z,96664.83
2018-03-17T04:03:17.325Z,96658.08
2018-03-17T04:04:22.753Z,96654.55
2018-03-17T04:05:28.655Z,96642.63
2018-03-17T04:06:33.741Z,96666.62
2018-03-17T04:07:39.145Z,96666.34
2018-03-17T04:08:43.958Z,96668.88
2018-03-17T04:09:49.123Z,96668.17
2018-03-17T04:10:54.028Z,96659.49
2018-03-17T04:11:59.684Z,96662.84
2018-03-17T04:13:05.181Z,96659.07
2018-03-17T04:14:11.619Z,96668.30
2018-03-17T04:15:16.643Z,96666.11
2018-03-17T04:16:21.775Z,96665.88
2018-03-17T04:17:27.129Z,96656.52
2018-03-17T04:18:32.909Z,96646.67
2018-03-17T04:19:38.603Z,96652.38
2018-03-17T04:20:44.043Z,96649.81
2018-03-17T04:21:49.319Z,96653.61
2018-03-17T04:22:55.228Z,96658.52
2018-03-17T04:24:00.408Z,96655.55
2018-03-17T04:25:05.970Z,96657.22
2018-03-17T04:26:11.206Z,96652.30
2018-03-17T04:27:16.407Z,96654.67
2018-03-17T04:28:21.520Z,96670.04
2018-03-17T04:29:26.901Z,96655.86
2018-03-17T04:30:31.888Z,96657.34
2018-03-17T04:31:37.415Z,96648.04
2018-03-17T04:32:42.797Z,96657.41
2018-03-17T04:33:47.949Z,96659.12
2018-03-17T04:34:53.064Z,96658.53
2018-03-17T04:35:58.166Z,96658.71
2018-03-17T04:37:03.057Z,96662.19
2018-03-17T04:38:08.548Z,96654.84
2018-03-17T04:39:13.838Z,96664.02
2018-03-17T04:40:19.259Z,96656.29
2018-03-17T04:41:24.435Z,96658.39
2018-03-17T04:42:29.621Z,96658.33
2018-03-17T04:43:34.905Z,96649.63
2018-03-17T04:44:40.638Z,96647.21
2018-03-17T04:45:45.801Z,96649.68
2018-03-17T04:46:50.754Z,96648.47
2018-03-17T04:47:56.109Z,96648.25
2018-03-17T04:49:01.396Z,96652.86
2018-03-17T04:50:06.476Z,96652.36
2018-03-17T04:51:11.808Z,96647.23
2018-03-17T04:52:17.084Z,96655.29
2018-03-17T04:53:22.353Z,96647.91
2018-03-17T04:54:27.723Z,96643.64
2018-03-17T04:55:33.216Z,96649.67
2018-03-17T04:56:38.364Z,96646.57
2018-03-17T04:57:43.847Z,96649.80
2018-03-17T04:58:48.928Z,96645.52
2018-03-17T04:59:54.706Z,96645.23
2018-03-17T05:00:59.974Z,96641.20
2018-03-17T05:02:04.993Z,96629.37
2018-03-17T05:03:10.346Z,96639.70
2018-03-17T05:04:15.749Z,96626.45
2018-03-17T05:05:21.270Z,96634.45
2018-03-17T05:06:26.683Z,96632.72
2018-03-17T05:07:32.182Z,96641.84
2018-03-17T05:08:37.591Z,96630.47
2018-03-17T05:09:42.906Z,96632.27
2018-03-17T05:10:48.399Z,96632.87
2018-03-17T05:11:53.675Z,96627.11
2018-03-17T05:12:59.136Z,96632.99
2018-03-17T05:14:04.165Z,96638.67
2018-03-17T05:15:09.313Z,96641.84
2018-03-17T05:16:14.288Z,96642.28
2018-03-17T05:17:19.696Z,96623.96
2018-03-17T05:18:24.815Z,96624.08
2018-03-17T05:19:30.150Z,96641.02
2018-03-17T05:20:35.155Z,96632.94
2018-03-17T05:21:40.474Z,96634.11
2018-03-17T05:22:45.655Z,96636.31
2018-03-17T05:23:51.424Z,96632.48
2018-03-17T05:24:56.644Z,96635.32
2018-03-17T05:26:01.784Z,96611.13
2018-03-17T05:27:06.897Z,96631.17
2018-03-17T05:28:12.027Z,96627.56
2018-03-17T05:29:17.199Z,96638.23
2018-03-17T05:30:22.453Z,96615.70
2018-03-17T05:31:27.304Z,96628.59
2018-03-17T05:32:32.154Z,96634.34
2018-03-17T05:33:37.151Z,96625.47
2018-03-17T05:34:42.430Z,96625.19
2018-03-17T05:35:47.829Z,96626.86
2018-03-17T05:36:53.483Z,96619.61
2018-03-17T05:37:58.774Z,96628.42
2018-03-17T05:39:03.745Z,96629.77
2018-03-17T05:40:09.105Z,96626.20
2018-03-17T05:41:14.313Z,96625.55
2018-03-17T05:42:19.323Z,96623.92
2018-03-17T05:43:24.811Z,96618.27
2018-03-17T05:44:30.139Z,96623.13
2018-03-17T05:45:35.275Z,96618.09
2018-03-17T05:46:40.358Z,96614.62
2018-03-17T05:47:45.595Z,96615.09
2018-03-17T05:48:50.817Z,96623.02
2018-03-17T05:49:56.517Z,96618.64
2018-03-17T05:51:01.648Z,96622.47
2018-03-17T05:52:07.091Z,96609.48
2018-03-17T05:53:12.567Z,96601.91
2018-03-17T05:54:17.932Z,96617.00
2018-03-17T05:55:23.233Z,96630.31
2018-03-17T05:56:28.839Z,96620.92
2018-03-17T05:57:34.233Z,96634.33
2018-03-17T05:58:39.693Z,96628.68
2018-03-17T05:59:45.083Z,96630.15
2018-03-17T06:00:50.559Z,96632.11
2018-03-17T06:01:56.087Z,96629.59
2018-03-17T06:03:02.002Z,96630.91
2018-03-17T06:04:07.630Z,96638.53
2018-03-17T06:05:13.237Z,96628.81
2018-03-17T06:06:18.978Z,96641.22
2018-03-17T06:07:24.974Z,96637.10
2018-03-17T06:08:30.803Z,96619.33
2018-03-17T06:09:36.313Z,96639.33
2018-03-17T06:10:41.768Z,96627.62
2018-03-17T06:11:47.696Z,96639.16
2018-03-17T06:12:52.949Z,96638.84
2018-03-17T06:13:58.348Z,96644.27
2018-03-17T06:16:14.295Z,96642.14
2018-03-17T06:18:38.840Z,96645.51
2018-03-17T06:19:44.416Z,96644.84
2018-03-17T06:20:50.044Z,96649.27
2018-03-17T06:21:56.041Z,96634.30
2018-03-17T06:23:01.393Z,96638.54
2018-03-17T06:24:06.909Z,96642.47
2018-03-17T06:25:12.530Z,96657.94
2018-03-17T06:26:18.324Z,96628.41
2018-03-17T06:27:24.088Z,96635.47
2018-03-17T06:28:30.254Z,96645.70
2018-03-17T06:29:35.781Z,96660.58
2018-03-17T06:30:41.654Z,96654.09
2018-03-17T06:31:47.277Z,96641.42
2018-03-17T06:32:53.214Z,96646.31
2018-03-17T06:33:58.772Z,96633.43
2018-03-17T06:35:04.564Z,96651.66
2018-03-17T06:36:10.161Z,96644.11
2018-03-17T06:37:15.914Z,96650.41
2018-03-17T06:38:21.470Z,96649.34
2018-03-17T06:39:27.346Z,96647.33
2018-03-17T06:40:33.023Z,96647.39
2018-03-17T06:41:39.056Z,96643.99
2018-03-17T06:42:44.900Z,96626.39
2018-03-17T06:43:50.367Z,96646.41
2018-03-17T06:44:56.183Z,96642.56
2018-03-17T06:46:01.803Z,96634.33
2018-03-17T06:47:07.590Z,96648.14
2018-03-17T06:48:13.187Z,96649.75
2018-03-17T06:49:18.941Z,96638.25
2018-03-17T06:50:24.360Z,96649.92
2018-03-17T06:51:30.049Z,96642.53
2018-03-17T06:52:35.409Z,96640.84
2018-03-17T06:53:41.347Z,96637.82
2018-03-17T06:54:46.828Z,96640.27
2018-03-17T06:55:52.305Z,96641.48
2018-03-17T06:56:57.991Z,96650.52
2018-03-17T06:58:03.620Z,96650.91
2018-03-17T06:59:09.262Z,96646.86
2018-03-17T07:00:14.984Z,96650.52
2018-03-17T07:01:20.661Z,96652.84
2018-03-17T07:02:26.220Z,96641.38
2018-03-17T07:03:31.805Z,96650.31
2018-03-17T07:04:37.526Z,96647.70
2018-03-17T07:05:43.123Z,96621.08
2018-03-17T07:06:48.978Z,96624.75
2018-03-17T07:07:54.619Z,96644.23
2018-03-17T07:09:00.049Z,96655.42
2018-03-17T07:10:05.639Z,96653.28
2018-03-17T07:11:11.214Z,96646.07
2018-03-17T07:12:16.755Z,96647.37
2018-03-17T07:13:22.453Z,96653.08
2018-03-17T07:14:28.018Z,96650.53
2018-03-17T07:15:33.667Z,96642.60
2018-03-17T07:16:39.183Z,96641.30
2018-03-17T07:17:44.704Z,96643.25
2018-03-17T07:18:50.230Z,96634.28
2018-03-17T07:19:56.399Z,96640.07
2018-03-17T07:21:01.808Z,96641.91
2018-03-17T07:22:07.476Z,96649.59
2018-03-17T07:23:12.821Z,96657.00
2018-03-17T07:24:18.267Z,96658.30
2018-03-17T07:25:23.732Z,96635.42
2018-03-17T07:26:29.215Z,96636.27
2018-03-17T07:27:35.036Z,96630.99
2018-03-17T07:28:40.524Z,96650.97
2018-03-17T07:29:45.947Z,96643.09
2018-03-17T07:30:53.667Z,96640.98
2018-03-17T07:31:59.677Z,96643.24
2018-03-17T07:33:05.071Z,96637.56
2018-03-17T07:34:11.588Z,96631.34
2018-03-17T07:35:17.035Z,96609.09
2018-03-17T07:36:23.772Z,96628.81
2018-03-17T07:37:29.179Z,96613.36
2018-03-17T07:38:35.588Z,96634.14
2018-03-17T07:39:41.897Z,96617.13
2018-03-17T07:40:48.646Z,96624.02
2018-03-17T07:41:55.308Z,96623.06
2018-03-17T07:43:00.582Z,96628.67
2018-03-17T07:44:06.150Z,96635.06
2018-03-17T07:45:12.122Z,96639.34
2018-03-17T07:46:17.716Z,96633.86
2018-03-17T07:47:23.192Z,96631.03
2018-03-17T07:48:28.479Z,96634.69
2018-03-17T07:49:33.857Z,96638.09
2018-03-17T07:50:39.339Z,96637.53
2018-03-17T07:51:45.410Z,96632.95
2018-03-17T07:52:50.747Z,96642.53
2018-03-17T07:53:56.171Z,96653.53
2018-03-17T07:55:01.669Z,96633.81
2018-03-17T07:56:07.468Z,96642.39
2018-03-17T07:57:12.778Z,96640.02
2018-03-17T07:58:18.511Z,96645.31
2018-03-17T07:59:23.824Z,96650.91
2018-03-17T08:00:29.024Z,96656.09
2018-03-17T08:01:34.298Z,96651.73
2018-03-17T08:02:39.586Z,96656.69
2018-03-17T08:03:45.019Z,96655.05
2018-03-17T08:04:50.544Z,96650.27
2018-03-17T08:05:55.980Z,96649.69
2018-03-17T08:07:01.350Z,96648.81
2018-03-17T08:08:06.820Z,96650.15
2018-03-17T08:09:12.187Z,96650.11
2018-03-17T08:10:17.467Z,96651.67
2018-03-17T08:11:23.023Z,96653.05
2018-03-17T08:12:28.404Z,96649.38
2018-03-17T08:13:33.778Z,96631.99
2018-03-17T08:14:39.202Z,96651.80
2018-03-17T08:15:44.413Z,96634.20
2018-03-17T08:16:49.829Z,96645.84
2018-03-17T08:17:55.410Z,96640.60
2018-03-17T08:19:00.701Z,96633.18
2018-03-17T08:20:05.934Z,96642.78
2018-03-17T08:21:11.177Z,96642.64
2018-03-17T08:22:16.431Z,96642.89
2018-03-17T08:23:21.743Z,96643.22
2018-03-17T08:24:27.358Z,96638.48
2018-03-17T08:25:32.673Z,96638.64
2018-03-17T08:26:38.012Z,96638.28
2018-03-17T08:27:43.321Z,96637.08
2018-03-17T08:28:48.503Z,96643.38
2018-03-17T08:29:53.876Z,96632.78
2018-03-17T08:30:59.128Z,96637.39
2018-03-17T08:32:04.372Z,96636.53
2018-03-17T08:33:09.495Z,96637.33
2018-03-17T08:34:14.713Z,96630.92
2018-03-17T08:35:19.912Z,96627.55
2018-03-17T08:36:25.273Z,96631.44
2018-03-17T08:37:30.698Z,96615.02
2018-03-17T08:38:36.074Z,96626.09
2018-03-17T08:39:41.462Z,96620.14
2018-03-17T08:40:46.702Z,96621.22
2018-03-17T08:41:52.365Z,96622.75
2018-03-17T08:42:57.660Z,96629.73
2018-03-17T08:44:02.768Z,96624.81
2018-03-17T08:45:07.949Z,96623.41
2018-03-17T08:46:13.212Z,96626.41
2018-03-17T08:47:18.421Z,96615.68
2018-03-17T08:48:24.016Z,96628.54
2018-03-17T08:49:29.305Z,96626.94
2018-03-17T08:50:34.547Z,96630.75
2018-03-17T08:51:39.725Z,96629.64
2018-03-17T08:52:45.667Z,96622.40
2018-03-17T08:53:50.879Z,96627.95
2018-03-17T08:54:56.494Z,96628.56
2018-03-17T08:56:01.698Z,96630.89
2018-03-17T08:57:06.885Z,96618.59
2018-03-17T08:58:12.072Z,96627.64
2018-03-17T08:59:17.247Z,96634.28
2018-03-17T09:00:22.575Z,96626.38
2018-03-17T09:01:27.880Z,96627.88
2018-03-17T09:02:33.166Z,96635.89
2018-03-17T09:03:38.413Z,96631.98
2018-03-17T09:04:43.642Z,96632.06
2018-03-17T09:05:48.938Z,96627.40
2018-03-17T09:06:54.136Z,96619.81
2018-03-17T09:07:59.387Z,96622.67
2018-03-17T09:09:04.712Z,96612.50
2018-03-17T09:10:09.866Z,96626.30
2018-03-17T09:11:15.130Z,96625.75
2018-03-17T09:12:20.227Z,96628.22
2018-03-17T09:13:25.380Z,96635.62
2018-03-17T09:14:30.704Z,96627.33
2018-03-17T09:15:36.078Z,96627.23
2018-03-17T09:16:41.877Z,96628.08
2018-03-17T09:17:47.372Z,96630.05
2018-03-17T09:18:52.450Z,96627.48
2018-03-17T09:19:57.513Z,96627.18
2018-03-17T09:21:02.661Z,96629.79
2018-03-17T09:22:07.934Z,96624.97
2018-03-17T09:23:13.039Z,96623.81
2018-03-17T09:24:18.449Z,96633.44
2018-03-17T09:25:23.585Z,96626.51
2018-03-17T09:26:28.906Z,96636.84
2018-03-17T09:27:33.982Z,96634.01
2018-03-17T09:28:39.119Z,96638.18
2018-03-17T09:29:44.600Z,96641.14
2018-03-17T09:30:50.089Z,96634.64
2018-03-17T09:31:55.098Z,96651.02
2018-03-17T09:33:00.205Z,96641.00
2018-03-17T09:34:05.405Z,96642.09
2018-03-17T09:35:10.477Z,96643.85
2018-03-17T09:36:15.818Z,96645.16
2018-03-17T09:37:21.018Z,96616.66
2018-03-17T09:38:26.148Z,96631.34
2018-03-17T09:39:31.762Z,96619.16
2018-03-17T09:40:36.899Z,96627.05
2018-03-17T09:41:41.954Z,96631.50
2018-03-17T09:42:47.404Z,96643.06
2018-03-17T09:43:52.720Z,96637.26
2018-03-17T09:44:57.979Z,96623.92
2018-03-17T09:46:03.146Z,96623.77
2018-03-17T09:47:08.364Z,96624.06
2018-03-17T09:48:13.439Z,96604.75
2018-03-17T09:49:19.012Z,96634.61
2018-03-17T09:50:23.982Z,96640.04
2018-03-17T09:51:29.152Z,96632.23
2018-03-17T09:52:34.332Z,96620.27
2018-03-17T09:53:39.400Z,96627.48
2018-03-17T09:54:44.551Z,96614.59
2018-03-17T09:55:50.220Z,96630.09
2018-03-17T09:56:55.257Z,96634.22
2018-03-17T09:58:00.251Z,96623.19
2018-03-17T09:59:05.424Z,96627.84
2018-03-17T10:00:10.428Z,96631.31
2018-03-17T10:01:15.539Z,96628.45
2018-03-17T10:02:20.837Z,96630.25
2018-03-17T10:03:25.909Z,96632.33
2018-03-17T10:04:32.631Z,96631.68
2018-03-17T10:05:38.054Z,96622.13
2018-03-17T10:06:43.169Z,96638.64
2018-03-17T10:07:48.815Z,96627.61
2018-03-17T10:08:54.063Z,96614.97
2018-03-17T10:09:59.161Z,96622.53
2018-03-17T10:11:04.744Z,96637.84
2018-03-17T10:12:09.836Z,96642.68
2018-03-17T10:13:15.558Z,96648.92
2018-03-17T10:14:20.668Z,96641.41
2018-03-17T10:15:25.668Z,96639.66
2018-03-17T10:16:30.768Z,96637.16
2018-03-17T10:17:36.541Z,96628.53
2018-03-17T10:18:41.620Z,96627.02
2018-03-17T10:19:47.149Z,96625.39
2018-03-17T10:20:52.304Z,96634.71
2018-03-17T10:21:57.362Z,96645.06
2018-03-17T10:23:02.412Z,96640.12
2018-03-17T10:24:07.578Z,96645.16
2018-03-17T10:25:12.581Z,96641.20
2018-03-17T10:26:17.953Z,96648.06
2018-03-17T10:27:22.941Z,96642.81
2018-03-17T10:28:27.888Z,96651.11
2018-03-17T10:29:32.904Z,96640.88
2018-03-17T10:30:38.065Z,96639.01
2018-03-17T10:31:43.632Z,96640.99
2018-03-17T10:32:49.209Z,96609.42
2018-03-17T10:33:54.258Z,96638.86
2018-03-17T10:34:59.244Z,96634.36
2018-03-17T10:36:04.341Z,96644.17
2018-03-17T10:37:09.331Z,96638.86
2018-03-17T10:38:14.258Z,96620.23
2018-03-17T10:39:19.662Z,96659.12
2018-03-17T10:40:24.595Z,96637.27
2018-03-17T10:41:29.522Z,96639.86
2018-03-17T10:42:35.836Z,96651.94
2018-03-17T10:43:40.834Z,96622.69
2018-03-17T10:44:45.700Z,96645.30
2018-03-17T10:45:50.941Z,96632.50
2018-03-17T10:46:56.334Z,96629.31
2018-03-17T10:48:01.502Z,96636.02
2018-03-17T10:49:06.595Z,96647.91
2018-03-17T10:51:24.201Z,96650.66
2018-03-17T10:52:29.573Z,96649.66
2018-03-17T10:53:34.716Z,96643.33
2018-03-17T10:54:40.131Z,96637.98
2018-03-17T10:55:45.191Z,96646.97
2018-03-17T10:56:49.960Z,96644.09
2018-03-17T10:57:55.510Z,96625.63
2018-03-17T10:59:00.647Z,96627.02
2018-03-17T11:00:05.761Z,96638.16
2018-03-17T11:01:14.717Z,96642.05
2018-03-17T11:02:22.317Z,96646.16
2018-03-17T11:03:27.673Z,96640.73
2018-03-17T11:04:33.244Z,96648.98
2018-03-17T11:05:38.538Z,96633.58
2018-03-17T11:06:43.558Z,96642.54
2018-03-17T11:07:48.911Z,96643.32
2018-03-17T11:08:53.948Z,96633.19
2018-03-17T11:09:59.033Z,96640.81
2018-03-17T11:11:04.607Z,96643.27
2018-03-17T11:12:09.820Z,96651.36
2018-03-17T11:13:14.902Z,96637.09
2018-03-17T11:14:19.997Z,96639.75
2018-03-17T11:15:25.037Z,96635.78
2018-03-17T11:16:30.200Z,96639.37
2018-03-17T11:17:35.688Z,96643.70
2018-03-17T11:18:40.786Z,96638.24
2018-03-17T11:19:46.291Z,96622.91
2018-03-17T11:20:51.353Z,96626.03
2018-03-17T11:21:56.572Z,96631.80
2018-03-17T11:23:01.661Z,96638.94
2018-03-17T11:24:07.158Z,96641.72
2018-03-17T11:25:12.315Z,96639.41
2018-03-17T11:26:17.440Z,96633.87
2018-03-17T11:27:22.495Z,96645.50
2018-03-17T11:28:27.651Z,96632.33
2018-03-17T11:29:32.728Z,96643.45
2018-03-17T11:30:38.370Z,96624.47
2018-03-17T11:31:43.478Z,96640.96
2018-03-17T11:32:48.618Z,96653.54
2018-03-17T11:33:53.947Z,96641.03
2018-03-17T11:34:59.386Z,96632.52
2018-03-17T11:36:04.637Z,96638.45
2018-03-17T11:37:10.277Z,96637.00
2018-03-17T11:38:15.403Z,96635.91
2018-03-17T11:39:20.663Z,96626.03
2018-03-17T11:40:25.922Z,96605.47
2018-03-17T11:41:31.115Z,96633.00
2018-03-17T11:42:36.329Z,96632.16
2018-03-17T11:43:41.596Z,96644.17
2018-03-17T11:44:46.784Z,96634.77
2018-03-17T11:45:51.813Z,96616.05
2018-03-17T11:46:56.896Z,96633.47
2018-03-17T11:48:02.182Z,96639.45
2018-03-17T11:49:07.558Z,96633.05
2018-03-17T11:50:13.375Z,96636.74
2018-03-17T11:51:18.473Z,96637.84
2018-03-17T11:52:23.796Z,96627.26
2018-03-17T11:53:28.809Z,96624.74
2018-03-17T11:54:33.912Z,96627.25
2018-03-17T11:55:39.378Z,96631.30
2018-03-17T11:56:44.570Z,96628.31
2018-03-17T11:57:50.058Z,96626.57
2018-03-17T11:58:55.179Z,96635.61
2018-03-17T12:00:00.333Z,96638.39
2018-03-17T12:01:05.520Z,96639.25
2018-03-17T12:02:11.182Z,96625.92
2018-03-17T12:03:16.262Z,96637.73
2018-03-17T12:04:21.388Z,96640.95
2018-03-17T12:05:26.426Z,96640.77
2018-03-17T12:06:31.612Z,96638.84
2018-03-17T12:07:36.772Z,96636.70
2018-03-17T12:08:42.577Z,96626.39
2018-03-17T12:09:47.699Z,96606.92
2018-03-17T12:10:52.960Z,96613.35
2018-03-17T12:11:58.445Z,96624.84
2018-03-17T12:13:03.617Z,96626.06
2018-03-17T12:14:08.952Z,96611.92
2018-03-17T12:15:14.737Z,96617.69
2018-03-17T12:16:20.156Z,96603.91
2018-03-17T12:17:25.333Z,96616.13
2018-03-17T12:18:30.626Z,96611.49
2018-03-17T12:19:35.675Z,96609.81
2018-03-17T12:20:40.778Z,96612.11
2018-03-17T12:21:46.529Z,96618.25
2018-03-17T12:22:51.662Z,96608.89
2018-03-17T12:23:56.888Z,96604.34
2018-03-17T12:25:02.223Z,96611.71
2018-03-17T12:26:07.612Z,96608.27
2018-03-17T12:27:13.537Z,96608.16
2018-03-17T12:28:18.521Z,96608.48
2018-03-17T12:29:23.589Z,96605.39
2018-03-17T12:30:28.873Z,96613.34
2018-03-17T12:31:33.871Z,96613.35
2018-03-17T12:32:38.938Z,96613.38
2018-03-17T12:33:44.359Z,96618.16
2018-03-17T12:34:49.422Z,96619.46
2018-03-17T12:35:54.852Z,96615.75
2018-03-17T12:36:59.854Z,96612.67
2018-03-17T12:38:04.968Z,96611.75
2018-03-17T12:39:10.083Z,96608.20
2018-03-17T12:40:15.553Z,96611.33
2018-03-17T12:41:20.803Z,96614.62
2018-03-17T12:42:26.159Z,96614.22
2018-03-17T12:43:31.320Z,96615.50
2018-03-17T12:44:36.434Z,96616.50
2018-03-17T12:45:41.496Z,96617.19
2018-03-17T12:46:46.955Z,96592.41
2018-03-17T12:47:52.086Z,96612.62
2018-03-17T12:48:57.318Z,96613.27
2018-03-17T12:50:02.503Z,96618.24
2018-03-17T12:51:07.780Z,96618.82
2018-03-17T12:52:12.835Z,96621.00